TimePST,TemperatureF,Dew PointF,Humidity,Sea Level PressureIn,VisibilityMPH,Wind Direction,Wind SpeedMPH,Gust SpeedMPH,PrecipitationIn,Events,Conditions,WindDirDegrees,DateUTC
12:15 AM,37.4,35.6,93,30.11,10.0,Calm,Calm,-,N/A,,Clear,0,2014-02-17 08:15:00
12:35 AM,39.2,37.4,93,30.11,10.0,Calm,Calm,-,N/A,,Clear,0,2014-02-17 08:35:00
12:55 AM,37.4,35.6,93,30.11,10.0,Calm,Calm,-,N/A,,Clear,0,2014-02-17 08:55:00
1:15 AM,37.4,35.6,93,30.11,10.0,ENE,5.8,-,N/A,,Clear,60,2014-02-17 09:15:00
1:35 AM,35.6,33.8,93,30.11,10.0,ENE,4.6,-,N/A,,Clear,70,2014-02-17 09:35:00
1:55 AM,35.6,35.6,100,30.10,10.0,NE,4.6,-,N/A,,Clear,50,2014-02-17 09:55:00
2:15 AM,37.4,35.6,93,30.11,10.0,Calm,Calm,-,N/A,,Clear,0,2014-02-17 10:15:00
2:35 AM,37.4,35.6,93,30.11,10.0,Calm,Calm,-,N/A,,Clear,0,2014-02-17 10:35:00
2:55 AM,35.6,35.6,100,30.11,10.0,Calm,Calm,-,N/A,,Clear,0,2014-02-17 10:55:00
3:15 AM,33.8,33.8,100,30.11,10.0,NNE,3.5,-,N/A,,Clear,30,2014-02-17 11:15:00
3:35 AM,35.6,35.6,100,30.10,10.0,Calm,Calm,-,N/A,,Clear,0,2014-02-17 11:35:00
3:55 AM,37.4,35.6,93,30.10,10.0,East,3.5,-,N/A,,Clear,90,2014-02-17 11:55:00
4:15 AM,37.4,37.4,100,30.10,10.0,SE,3.5,-,N/A,,Clear,130,2014-02-17 12:15:00
4:35 AM,37.4,35.6,93,30.09,10.0,SSE,3.5,-,N/A,,Clear,150,2014-02-17 12:35:00
4:55 AM,35.6,35.6,100,30.08,10.0,SE,5.8,-,N/A,,Clear,140,2014-02-17 12:55:00
5:15 AM,39.2,37.4,93,30.08,10.0,SE,4.6,-,N/A,,Clear,140,2014-02-17 13:15:00
5:35 AM,41.0,37.4,87,30.08,10.0,SE,5.8,-,N/A,,Clear,140,2014-02-17 13:35:00
5:55 AM,37.4,35.6,93,30.08,10.0,Calm,Calm,-,N/A,,Clear,0,2014-02-17 13:55:00
6:15 AM,37.4,35.6,93,30.08,10.0,SE,3.5,-,N/A,,Clear,140,2014-02-17 14:15:00
6:35 AM,37.4,35.6,93,30.08,10.0,Calm,Calm,-,N/A,,Clear,0,2014-02-17 14:35:00
6:55 AM,35.6,33.8,93,30.09,10.0,West,5.8,-,N/A,,Clear,280,2014-02-17 14:55:00
7:15 AM,35.6,35.6,100,30.10,10.0,Calm,Calm,-,N/A,,Clear,0,2014-02-17 15:15:00
7:35 AM,37.4,35.6,93,30.11,10.0,West,4.6,-,N/A,,Clear,280,2014-02-17 15:35:00
7:55 AM,37.4,37.4,100,30.14,10.0,NW,4.6,-,N/A,,Clear,320,2014-02-17 15:55:00
8:15 AM,41.0,41.0,100,30.15,7.0,North,4.6,-,N/A,,Scattered Clouds,360,2014-02-17 16:15:00
8:35 AM,42.8,42.8,100,30.15,10.0,NE,5.8,-,N/A,,Scattered Clouds,50,2014-02-17 16:35:00
8:55 AM,44.6,42.8,93,30.15,10.0,ENE,6.9,-,N/A,,Clear,60,2014-02-17 16:55:00
9:15 AM,46.4,42.8,87,30.15,10.0,NE,4.6,-,N/A,,Clear,50,2014-02-17 17:15:00
9:35 AM,50.0,42.8,76,30.15,10.0,East,3.5,-,N/A,,Clear,80,2014-02-17 17:35:00
9:55 AM,51.8,42.8,71,30.15,10.0,East,4.6,-,N/A,,Clear,90,2014-02-17 17:55:00
10:15 AM,53.6,42.8,67,30.15,10.0,East,3.5,-,N/A,,Clear,90,2014-02-17 18:15:00
10:35 AM,55.4,41.0,58,30.14,10.0,SE,4.6,-,N/A,,Clear,130,2014-02-17 18:35:00
10:55 AM,57.2,41.0,55,30.15,10.0,Calm,Calm,-,N/A,,Clear,0,2014-02-17 18:55:00
11:15 AM,59.0,37.4,45,30.15,10.0,Calm,Calm,-,N/A,,Clear,0,2014-02-17 19:15:00
11:35 AM,60.8,39.2,45,30.14,10.0,Calm,Calm,-,N/A,,Clear,0,2014-02-17 19:35:00
11:55 AM,60.8,37.4,42,30.14,10.0,WSW,4.6,-,N/A,,Clear,240,2014-02-17 19:55:00
12:15 PM,60.8,37.4,42,30.14,10.0,West,3.5,-,N/A,,Clear,270,2014-02-17 20:15:00
12:35 PM,60.8,37.4,42,30.13,10.0,West,4.6,-,N/A,,Clear,260,2014-02-17 20:35:00
12:55 PM,60.8,42.8,52,30.13,10.0,West,8.1,-,N/A,,Clear,270,2014-02-17 20:55:00
1:15 PM,60.8,37.4,42,30.12,10.0,WSW,5.8,-,N/A,,Clear,250,2014-02-17 21:15:00
1:35 PM,60.8,35.6,39,30.11,10.0,West,5.8,-,N/A,,Clear,270,2014-02-17 21:35:00
1:55 PM,60.8,35.6,39,30.11,10.0,WSW,4.6,-,N/A,,Clear,240,2014-02-17 21:55:00
2:15 PM,60.8,35.6,39,30.11,10.0,West,3.5,-,N/A,,Clear,270,2014-02-17 22:15:00
2:35 PM,60.8,33.8,36,30.11,10.0,West,4.6,-,N/A,,Clear,260,2014-02-17 22:35:00
2:55 PM,60.8,39.2,45,30.11,10.0,WNW,5.8,-,N/A,,Clear,300,2014-02-17 22:55:00
3:15 PM,60.8,37.4,42,30.10,10.0,Calm,Calm,-,N/A,,Clear,0,2014-02-17 23:15:00
3:35 PM,60.8,37.4,42,30.10,10.0,Calm,Calm,-,N/A,,Clear,0,2014-02-17 23:35:00
3:55 PM,60.8,35.6,39,30.10,10.0,West,3.5,-,N/A,,Clear,260,2014-02-17 23:55:00
4:15 PM,60.8,35.6,39,30.10,10.0,West,3.5,-,N/A,,Clear,280,2014-02-18 00:15:00
4:35 PM,60.8,37.4,42,30.11,10.0,West,3.5,-,N/A,,Clear,270,2014-02-18 00:35:00
4:55 PM,60.8,37.4,42,30.11,7.0,West,3.5,-,N/A,,Clear,270,2014-02-18 00:55:00
5:15 PM,60.8,39.2,45,30.11,10.0,West,3.5,-,N/A,,Clear,270,2014-02-18 01:15:00
5:35 PM,59.0,39.2,48,30.11,10.0,WSW,3.5,-,N/A,,Clear,250,2014-02-18 01:35:00
5:55 PM,55.4,39.2,54,30.11,10.0,WSW,3.5,-,N/A,,Clear,250,2014-02-18 01:55:00
6:15 PM,53.6,41.0,62,30.11,10.0,West,4.6,-,N/A,,Clear,280,2014-02-18 02:15:00
6:35 PM,51.8,41.0,67,30.11,10.0,West,3.5,-,N/A,,Clear,270,2014-02-18 02:35:00
6:55 PM,51.8,41.0,67,30.12,10.0,WNW,3.5,-,N/A,,Clear,290,2014-02-18 02:55:00
7:15 PM,50.0,41.0,71,30.12,10.0,Calm,Calm,-,0.01,,Clear,0,2014-02-18 03:15:00
7:35 PM,50.0,41.0,71,30.12,10.0,Calm,Calm,-,0.01,,Clear,0,2014-02-18 03:35:00
7:55 PM,50.0,39.2,66,30.13,10.0,Calm,Calm,-,N/A,,Clear,0,2014-02-18 03:55:00
8:15 PM,44.6,39.2,81,30.13,10.0,Calm,Calm,-,N/A,,Clear,0,2014-02-18 04:15:00
8:35 PM,41.0,37.4,87,30.14,10.0,East,3.5,-,N/A,,Clear,80,2014-02-18 04:35:00
8:55 PM,41.0,37.4,87,30.14,10.0,East,6.9,-,N/A,,Clear,80,2014-02-18 04:55:00
9:15 PM,37.4,35.6,93,30.14,10.0,East,5.8,-,N/A,,Clear,80,2014-02-18 05:15:00
9:35 PM,37.4,35.6,93,30.15,10.0,East,4.6,-,N/A,,Clear,80,2014-02-18 05:35:00
9:55 PM,39.2,37.4,93,30.15,10.0,ENE,5.8,-,N/A,,Clear,60,2014-02-18 05:55:00
10:15 PM,39.2,37.4,93,30.15,10.0,ENE,6.9,-,N/A,,Clear,60,2014-02-18 06:15:00
10:35 PM,37.4,35.6,93,30.16,10.0,ENE,6.9,-,N/A,,Clear,60,2014-02-18 06:35:00
10:55 PM,37.4,35.6,93,30.16,10.0,NE,6.9,-,N/A,,Clear,50,2014-02-18 06:55:00
11:15 PM,37.4,35.6,93,30.16,10.0,NE,6.9,-,N/A,,Clear,50,2014-02-18 07:15:00
11:35 PM,37.4,35.6,93,30.15,10.0,NE,5.8,-,N/A,,Clear,50,2014-02-18 07:35:00
11:55 PM,37.4,35.6,93,30.15,10.0,NNE,4.6,-,N/A,,Clear,30,2014-02-18 07:55:00